Chetumal International Airport
MMCM : rendu visible

Aérodrome :











RETROUVEZ-NOUS SUR...

 
LOGIN :

S'inscrire | Disclaimer

   EN    FR    IT 

 









Légende :    VFR   VFR Marginal   IFR   IFR Intensif   IFR Très Intensif
Visi : 
Plafond : 
>= 8 km
>= 3000ft
5 à 8 km
1000 à 3000 ft
1500m à 5 km
500 à 1000 ft
800 à 1500m
200 à 500 ft
< 800m
< 200 ft
Symboles :   Orages  Brouillard  Fortes neiges  Fortes précipitations  Vent > 20 kt






- Altitude de l'aérodrome : 39 ft
- Code IATA : CTM


MMCM - Chetumal International

DERNIER METAR :
  • 061940Z 08004KT 7SM SCT020CB 30/21 A3003 RMK 8/200

METARs EXPIRÉS :
  • 061842Z 11005KT 7SM SCT020CB 29/21 A3005 RMK 8/200
  • 061740Z 12010KT 7SM SCT020TCU 29/21 A3008 RMK SLP188 5//// 914 8/200

TAF COR TAF MMCM
Valide du 06 à 18h jusqu'au 07 à 18h UTC


061916Z 0618/0718 09010KT P6SM SCT020
TEMPO 0619/0623 BKN020CB
FM070300 04008KT P6SM BKN020
TEMPO 0710/0714 3SM BR HZ BKN015
FM071500 03010KT P6SM SCT020



MET'MAP, la Météo Aéronautique d'un coup d'oeil ! - Copyright ORBIFLY Décembre 2007 - Disclaimer

ORBIFLY MET'MAP TEAM :

Programmation & Développement : Alexandra Zaïnal
Sur une idée originale de : Baudouin d'Aumeries
Assistance à la programmation : Marc-Olivier Méhu
Soutien technique & logistique : Manuel Goepfert

Contact : metmap@orbifly.com




SOURCES & CREDITS :

   NOAA       Earth
Advisory